Ragley, LA

5:31 PM CDT on May 03, 2015 (GMT -0500)
MesoWest | | Change Station
CLOSE
Current Station
Personal Weather Station
Location: Longville, LA
Elevation: 83 ft
Nearby Weather Stations
Active Advisory: Flood Warning

Elev 83 ft 30.51 °N, 93.22 °W | Updated 5 hours ago

Clear
Clear
73.0 °F
Feels Like 73.0 °F
N
0.0
Wind Variable Wind from North
Gusts 0.0 mph

Today
High -- | Low -- °F
--% Chance of Precip.
Yesterday
High -- | Low -- °F
Precip. -- in
6:27 AM 7:52 PM
Full, 100% visible
Pressure 30.04 in
Visibility 10.0 miles
Clouds Clear
Dew Point Not available.
Humidity Not available.
Rainfall in
Snow Depth Not available.
UV 3 out of 12
Pollen 6.00 out of 12
Air Quality Not available.
Flu Activity Sporadic
METAR K5R8 032215Z AUTO 16010KT 10SM CLR 27/11 A3004 RMK AO2 T02660114

More Conditions Fewer Conditions

Pressure 30.04 in
Visibility 10.0 miles
Clouds Clear
Dew Point Not available.
Humidity Not available.
Rainfall in
Snow Depth Not available.
UV 3 out of 12
Pollen 6.00 out of 12
Air Quality Not available.
Flu Activity Sporadic
METAR K5R8 032215Z AUTO 16010KT 10SM CLR 27/11 A3004 RMK AO2 T02660114

More Conditions Fewer Conditions

Nepal has a long way to go to dig out and rebuild from a devastating earthquake. We have teamed up with several charities and organizations to make contributing to the relief effort as easy as possible.
How you can help: Portlight Strategies | Red Cross

10-Day Weather Forecast

Almanac

Astronomy

May. 03, 2015 Rise Set
Actual Time
Civil Twilight
Nautical Twilight
Astronomical Twilight
Moon
Length of Visible Light
Length of Day
Tomorrow will be .
, % of the Moon is Illuminated

Today's Extremes

State Highs State Lows

Community

WunderPhotos

Upload Photos

1,818,399 photos uploaded!

WunderBlogs® & News

Nearby

Air Quality

  Air Quality AQ Index Pollutant
Not available.

Snow Depth

Station Depth Elevation

Earthquake Activity

City Distance Mag. Time & Date
Minimum magnitude displayed is 2.5.

Coastal Water Temperatures

Place Temperature

Stations

Nearby Weather Stations

Station Location Temp. Windchill Dew Point Humidity Wind Precip. Elev Updated Type
                   
Flood Warning
Statement as of 9:50 AM CDT on May 03, 2015

The Flood Warning continues for
the Sabine River near Deweyville.
* Until further notice... or until the warning is cancelled.
* At 8:45 am Sunday the stage was 24.3 feet.
* Minor flooding is occurring and minor flooding is forecast.
* Flood stage is 24.0 feet.
* Forecast... the river will remain near 24.2 feet.
* Impact... at stages near 24.0 feet... minor lowland flooding will
occur.


Lat... Lon 3061 9376 3031 9381 3008 9378 3005 9367
      3044 9364 3057 9363